< < Back
Terminal Aerodrome Forecast


Current Version              Previous Versions:   1  2  3  4  5  6  7  8  9  

Terminal Aerodrome Forecast

929
FTUS42 KGSP 272035 AAC
TAFGSP
TAF AMD
KGSP 272035Z 2721/2818 20009KT P6SM SCT050
      TEMPO 2721/2723 VRB15G23KT 5SM -TSRA SCT050CB
     FM272300 VRB03KT P6SM FEW050 BKN250
     FM281600 14003KT P6SM SCT040=

Latest METAR

164
SAUS70 KWBC 280956
MTRGSP
METAR KGSP 280953Z AUTO 03003KT 9SM CLR 23/22 A3000 RMK AO2 SLP146
T02280217


USA.gov is the U.S. government's official web portal to all federal, state and local government web resources and services.